sensor_id;sensor_type;location;lat;lon;timestamp;pressure;altitude;pressure_sealevel;temperature;humidity
9764;BME280;4921;43.214;27.936;2024-03-02T00:00:19;100882.94;;;10.27;72.71
9764;BME280;4921;43.214;27.936;2024-03-02T00:02:47;100863.91;;;10.22;72.60
9764;BME280;4921;43.214;27.936;2024-03-02T00:05:16;100888.00;;;10.37;72.28
9764;BME280;4921;43.214;27.936;2024-03-02T00:07:45;100876.97;;;10.13;73.01
9764;BME280;4921;43.214;27.936;2024-03-02T00:10:16;100879.44;;;10.05;72.74
9764;BME280;4921;43.214;27.936;2024-03-02T00:12:47;100872.28;;;9.92;74.50
9764;BME280;4921;43.214;27.936;2024-03-02T00:18:18;100875.88;;;10.05;73.40
9764;BME280;4921;43.214;27.936;2024-03-02T00:20:43;100871.66;;;10.07;73.28
9764;BME280;4921;43.214;27.936;2024-03-02T00:23:12;100873.00;;;10.01;73.44
9764;BME280;4921;43.214;27.936;2024-03-02T00:25:41;100863.81;;;9.97;73.09
9764;BME280;4921;43.214;27.936;2024-03-02T00:28:22;100858.50;;;9.68;74.35
9764;BME280;4921;43.214;27.936;2024-03-02T00:33:32;100850.75;;;9.82;73.23
9764;BME280;4921;43.214;27.936;2024-03-02T00:35:58;100829.09;;;9.93;72.95
9764;BME280;4921;43.214;27.936;2024-03-02T00:38:25;100846.41;;;9.93;73.49
9764;BME280;4921;43.214;27.936;2024-03-02T00:40:52;100830.78;;;9.73;74.29
9764;BME280;4921;43.214;27.936;2024-03-02T00:43:45;100834.03;;;9.99;74.01
9764;BME280;4921;43.214;27.936;2024-03-02T00:46:13;100814.44;;;10.01;72.73
9764;BME280;4921;43.214;27.936;2024-03-02T00:48:56;100824.22;;;10.11;73.33
9764;BME280;4921;43.214;27.936;2024-03-02T00:51:23;100810.59;;;10.14;72.45
9764;BME280;4921;43.214;27.936;2024-03-02T00:53:51;100816.44;;;10.13;72.48
9764;BME280;4921;43.214;27.936;2024-03-02T00:56:20;100816.16;;;10.05;73.07
9764;BME280;4921;43.214;27.936;2024-03-02T00:58:46;100808.38;;;10.07;73.02
9764;BME280;4921;43.214;27.936;2024-03-02T01:01:11;100810.34;;;10.19;73.47
9764;BME280;4921;43.214;27.936;2024-03-02T01:03:37;100815.28;;;10.26;72.81
9764;BME280;4921;43.214;27.936;2024-03-02T01:06:04;100821.56;;;10.02;73.81
9764;BME280;4921;43.214;27.936;2024-03-02T01:08:29;100808.16;;;10.00;73.40
9764;BME280;4921;43.214;27.936;2024-03-02T01:10:55;100814.44;;;10.01;73.33
9764;BME280;4921;43.214;27.936;2024-03-02T01:13:22;100815.75;;;10.16;73.38
9764;BME280;4921;43.214;27.936;2024-03-02T01:15:48;100811.59;;;10.10;72.72
9764;BME280;4921;43.214;27.936;2024-03-02T01:18:14;100809.50;;;9.94;73.70
9764;BME280;4921;43.214;27.936;2024-03-02T01:20:39;100797.66;;;9.70;75.32
9764;BME280;4921;43.214;27.936;2024-03-02T01:23:05;100788.06;;;9.76;75.02
9764;BME280;4921;43.214;27.936;2024-03-02T01:25:31;100787.59;;;9.86;75.14
9764;BME280;4921;43.214;27.936;2024-03-02T01:27:56;100779.22;;;9.70;74.96
9764;BME280;4921;43.214;27.936;2024-03-02T01:30:22;100777.72;;;9.85;73.58
9764;BME280;4921;43.214;27.936;2024-03-02T01:32:47;100782.22;;;10.01;74.07
9764;BME280;4921;43.214;27.936;2024-03-02T01:35:13;100782.34;;;10.05;73.81
9764;BME280;4921;43.214;27.936;2024-03-02T01:37:40;100770.50;;;9.56;74.57
9764;BME280;4921;43.214;27.936;2024-03-02T01:40:06;100731.03;;;9.28;75.93
9764;BME280;4921;43.214;27.936;2024-03-02T01:42:38;100765.88;;;9.48;75.57
9764;BME280;4921;43.214;27.936;2024-03-02T01:45:05;100776.63;;;9.41;76.35
9764;BME280;4921;43.214;27.936;2024-03-02T01:47:31;100784.34;;;9.48;75.72
9764;BME280;4921;43.214;27.936;2024-03-02T01:49:57;100782.09;;;9.29;77.44
9764;BME280;4921;43.214;27.936;2024-03-02T01:52:23;100779.88;;;9.55;76.65
9764;BME280;4921;43.214;27.936;2024-03-02T01:54:49;100760.53;;;9.64;75.49
9764;BME280;4921;43.214;27.936;2024-03-02T01:57:15;100751.97;;;9.65;75.06
9764;BME280;4921;43.214;27.936;2024-03-02T01:59:40;100719.97;;;9.61;75.78
9764;BME280;4921;43.214;27.936;2024-03-02T02:02:06;100735.88;;;9.43;75.93
9764;BME280;4921;43.214;27.936;2024-03-02T02:04:33;100724.31;;;9.50;76.25
9764;BME280;4921;43.214;27.936;2024-03-02T02:06:59;100723.66;;;9.65;75.61
9764;BME280;4921;43.214;27.936;2024-03-02T02:09:25;100719.75;;;9.66;75.35
9764;BME280;4921;43.214;27.936;2024-03-02T02:11:51;100715.75;;;9.75;74.00
9764;BME280;4921;43.214;27.936;2024-03-02T02:14:17;100721.50;;;9.70;75.24
9764;BME280;4921;43.214;27.936;2024-03-02T02:16:43;100720.78;;;9.85;73.60
9764;BME280;4921;43.214;27.936;2024-03-02T02:19:08;100719.59;;;9.38;75.58
9764;BME280;4921;43.214;27.936;2024-03-02T02:21:34;100721.13;;;9.15;78.14
9764;BME280;4921;43.214;27.936;2024-03-02T02:24:00;100713.06;;;8.98;77.80
9764;BME280;4921;43.214;27.936;2024-03-02T02:26:28;100712.88;;;9.03;77.42
9764;BME280;4921;43.214;27.936;2024-03-02T02:28:54;100712.66;;;9.08;78.24
9764;BME280;4921;43.214;27.936;2024-03-02T02:31:19;100705.78;;;9.02;78.70
9764;BME280;4921;43.214;27.936;2024-03-02T02:33:45;100706.69;;;9.06;77.27
9764;BME280;4921;43.214;27.936;2024-03-02T02:36:10;100705.91;;;9.06;77.68
9764;BME280;4921;43.214;27.936;2024-03-02T02:38:39;100701.88;;;9.03;78.28
9764;BME280;4921;43.214;27.936;2024-03-02T02:41:06;100710.59;;;9.05;77.50
9764;BME280;4921;43.214;27.936;2024-03-02T02:43:32;100723.03;;;9.03;77.83
9764;BME280;4921;43.214;27.936;2024-03-02T02:45:57;100740.78;;;9.05;78.96
9764;BME280;4921;43.214;27.936;2024-03-02T02:48:23;100737.63;;;9.15;76.78
9764;BME280;4921;43.214;27.936;2024-03-02T02:50:48;100755.19;;;9.35;77.56
9764;BME280;4921;43.214;27.936;2024-03-02T02:53:14;100765.72;;;9.33;76.38
9764;BME280;4921;43.214;27.936;2024-03-02T02:55:40;100769.25;;;9.21;77.23
9764;BME280;4921;43.214;27.936;2024-03-02T02:58:08;100769.88;;;9.39;76.74
9764;BME280;4921;43.214;27.936;2024-03-02T03:00:34;100765.97;;;9.07;77.47
9764;BME280;4921;43.214;27.936;2024-03-02T03:02:59;100777.00;;;9.19;77.69
9764;BME280;4921;43.214;27.936;2024-03-02T03:05:25;100780.84;;;9.27;77.33
9764;BME280;4921;43.214;27.936;2024-03-02T03:07:51;100791.03;;;9.38;76.50
9764;BME280;4921;43.214;27.936;2024-03-02T03:10:17;100783.03;;;9.33;76.97
9764;BME280;4921;43.214;27.936;2024-03-02T03:12:42;100773.13;;;9.53;77.26
9764;BME280;4921;43.214;27.936;2024-03-02T03:15:09;100765.22;;;9.51;76.50
9764;BME280;4921;43.214;27.936;2024-03-02T03:17:35;100766.84;;;9.64;76.12
9764;BME280;4921;43.214;27.936;2024-03-02T03:20:03;100770.28;;;9.73;74.66
9764;BME280;4921;43.214;27.936;2024-03-02T03:22:30;100766.72;;;9.61;75.66
9764;BME280;4921;43.214;27.936;2024-03-02T03:24:56;100771.56;;;9.76;74.39
9764;BME280;4921;43.214;27.936;2024-03-02T03:27:22;100768.25;;;9.82;75.49
9764;BME280;4921;43.214;27.936;2024-03-02T03:29:47;100755.84;;;9.64;75.73
9764;BME280;4921;43.214;27.936;2024-03-02T03:32:13;100762.22;;;9.44;75.95
9764;BME280;4921;43.214;27.936;2024-03-02T03:34:39;100757.50;;;9.45;75.09
9764;BME280;4921;43.214;27.936;2024-03-02T03:37:06;100761.53;;;9.47;75.09
9764;BME280;4921;43.214;27.936;2024-03-02T03:39:34;100762.59;;;9.67;75.32
9764;BME280;4921;43.214;27.936;2024-03-02T03:41:59;100756.19;;;9.75;75.11
9764;BME280;4921;43.214;27.936;2024-03-02T03:44:25;100764.69;;;9.82;73.43
9764;BME280;4921;43.214;27.936;2024-03-02T03:46:50;100746.25;;;9.82;74.72
9764;BME280;4921;43.214;27.936;2024-03-02T03:49:16;100752.66;;;9.86;73.21
9764;BME280;4921;43.214;27.936;2024-03-02T03:51:42;100751.97;;;9.89;72.98
9764;BME280;4921;43.214;27.936;2024-03-02T03:54:08;100749.22;;;9.89;73.21
9764;BME280;4921;43.214;27.936;2024-03-02T03:56:33;100745.66;;;9.89;73.50
9764;BME280;4921;43.214;27.936;2024-03-02T03:58:59;100756.44;;;9.94;72.64
9764;BME280;4921;43.214;27.936;2024-03-02T04:01:25;100747.25;;;9.78;73.55
9764;BME280;4921;43.214;27.936;2024-03-02T04:03:50;100758.72;;;9.92;73.09
9764;BME280;4921;43.214;27.936;2024-03-02T04:06:16;100747.41;;;9.93;72.08
9764;BME280;4921;43.214;27.936;2024-03-02T04:08:42;100755.66;;;9.93;72.96
9764;BME280;4921;43.214;27.936;2024-03-02T04:11:08;100748.53;;;9.68;72.84
9764;BME280;4921;43.214;27.936;2024-03-02T04:13:34;100752.16;;;9.60;74.11
9764;BME280;4921;43.214;27.936;2024-03-02T04:15:59;100756.00;;;9.35;74.37
9764;BME280;4921;43.214;27.936;2024-03-02T04:18:25;100761.09;;;9.57;73.44
9764;BME280;4921;43.214;27.936;2024-03-02T04:20:50;100750.53;;;9.47;73.84
9764;BME280;4921;43.214;27.936;2024-03-02T04:23:16;100767.75;;;9.68;73.56
9764;BME280;4921;43.214;27.936;2024-03-02T04:25:41;100773.50;;;9.75;72.90
9764;BME280;4921;43.214;27.936;2024-03-02T04:28:07;100770.50;;;9.56;73.97
9764;BME280;4921;43.214;27.936;2024-03-02T04:30:32;100761.50;;;9.35;75.14
9764;BME280;4921;43.214;27.936;2024-03-02T04:32:58;100758.56;;;9.52;74.78
9764;BME280;4921;43.214;27.936;2024-03-02T04:35:24;100758.31;;;9.45;74.49
9764;BME280;4921;43.214;27.936;2024-03-02T04:37:50;100763.84;;;9.57;73.54
9764;BME280;4921;43.214;27.936;2024-03-02T04:40:16;100768.00;;;9.63;72.46
9764;BME280;4921;43.214;27.936;2024-03-02T04:42:41;100769.59;;;9.76;71.86
9764;BME280;4921;43.214;27.936;2024-03-02T04:45:08;100761.69;;;9.75;73.16
9764;BME280;4921;43.214;27.936;2024-03-02T04:47:34;100761.22;;;9.85;72.20
9764;BME280;4921;43.214;27.936;2024-03-02T04:49:59;100759.97;;;9.70;72.21
9764;BME280;4921;43.214;27.936;2024-03-02T04:52:25;100764.09;;;9.76;73.10
9764;BME280;4921;43.214;27.936;2024-03-02T04:54:50;100766.63;;;9.81;72.09
9764;BME280;4921;43.214;27.936;2024-03-02T04:57:35;100770.19;;;9.82;72.35
9764;BME280;4921;43.214;27.936;2024-03-02T05:00:01;100766.25;;;9.71;72.19
9764;BME280;4921;43.214;27.936;2024-03-02T05:02:26;100753.91;;;9.65;72.67
9764;BME280;4921;43.214;27.936;2024-03-02T05:04:52;100772.69;;;9.75;72.32
9764;BME280;4921;43.214;27.936;2024-03-02T05:07:17;100768.94;;;9.79;72.88
9764;BME280;4921;43.214;27.936;2024-03-02T05:09:43;100764.91;;;9.77;72.23
9764;BME280;4921;43.214;27.936;2024-03-02T05:12:08;100772.94;;;9.82;73.36
9764;BME280;4921;43.214;27.936;2024-03-02T05:14:52;100773.84;;;9.86;72.54
9764;BME280;4921;43.214;27.936;2024-03-02T05:17:18;100752.00;;;9.45;74.07
9764;BME280;4921;43.214;27.936;2024-03-02T05:19:43;100763.97;;;9.73;72.41
9764;BME280;4921;43.214;27.936;2024-03-02T05:22:09;100761.81;;;9.78;72.52
9764;BME280;4921;43.214;27.936;2024-03-02T05:24:34;100744.38;;;9.74;71.94
9764;BME280;4921;43.214;27.936;2024-03-02T05:27:00;100762.50;;;9.87;71.92
9764;BME280;4921;43.214;27.936;2024-03-02T05:29:25;100762.28;;;9.92;71.78
9764;BME280;4921;43.214;27.936;2024-03-02T05:31:51;100756.78;;;9.92;71.50
9764;BME280;4921;43.214;27.936;2024-03-02T05:34:16;100760.69;;;9.91;72.86
9764;BME280;4921;43.214;27.936;2024-03-02T05:36:42;100763.69;;;9.98;71.72
9764;BME280;4921;43.214;27.936;2024-03-02T05:39:07;100742.56;;;9.90;72.14
9764;BME280;4921;43.214;27.936;2024-03-02T05:41:35;100747.53;;;9.97;72.13
9764;BME280;4921;43.214;27.936;2024-03-02T05:44:01;100754.84;;;10.05;71.34
9764;BME280;4921;43.214;27.936;2024-03-02T05:46:27;100749.09;;;9.98;71.99
9764;BME280;4921;43.214;27.936;2024-03-02T05:48:53;100756.56;;;10.10;71.78
9764;BME280;4921;43.214;27.936;2024-03-02T05:51:18;100749.00;;;10.19;71.04
9764;BME280;4921;43.214;27.936;2024-03-02T05:53:44;100735.72;;;10.21;70.99
9764;BME280;4921;43.214;27.936;2024-03-02T05:56:09;100724.94;;;10.03;71.70
9764;BME280;4921;43.214;27.936;2024-03-02T05:58:35;100748.47;;;10.25;71.36
9764;BME280;4921;43.214;27.936;2024-03-02T06:01:19;100743.13;;;10.32;71.65
9764;BME280;4921;43.214;27.936;2024-03-02T06:03:45;100743.25;;;10.36;70.34
9764;BME280;4921;43.214;27.936;2024-03-02T06:06:11;100748.88;;;10.39;71.15
9764;BME280;4921;43.214;27.936;2024-03-02T06:08:36;100740.28;;;10.41;70.74
9764;BME280;4921;43.214;27.936;2024-03-02T06:11:02;100754.03;;;10.53;69.94
9764;BME280;4921;43.214;27.936;2024-03-02T06:13:27;100738.28;;;10.53;70.27
9764;BME280;4921;43.214;27.936;2024-03-02T06:15:53;100731.91;;;10.49;70.43
9764;BME280;4921;43.214;27.936;2024-03-02T06:18:19;100740.94;;;10.62;69.77
9764;BME280;4921;43.214;27.936;2024-03-02T06:20:44;100751.69;;;10.67;70.71
9764;BME280;4921;43.214;27.936;2024-03-02T06:23:10;100741.16;;;10.69;69.88
9764;BME280;4921;43.214;27.936;2024-03-02T06:25:35;100744.44;;;10.74;69.64
9764;BME280;4921;43.214;27.936;2024-03-02T06:28:01;100738.63;;;10.52;70.83
9764;BME280;4921;43.214;27.936;2024-03-02T06:30:26;100744.09;;;10.76;69.22
9764;BME280;4921;43.214;27.936;2024-03-02T06:32:52;100753.47;;;10.87;70.10
9764;BME280;4921;43.214;27.936;2024-03-02T06:35:17;100753.47;;;10.87;69.85
9764;BME280;4921;43.214;27.936;2024-03-02T06:37:43;100749.31;;;10.65;69.61
9764;BME280;4921;43.214;27.936;2024-03-02T06:40:09;100746.09;;;10.91;69.27
9764;BME280;4921;43.214;27.936;2024-03-02T06:42:35;100738.84;;;10.98;68.74
9764;BME280;4921;43.214;27.936;2024-03-02T06:45:02;100749.22;;;11.17;68.77
9764;BME280;4921;43.214;27.936;2024-03-02T06:47:28;100751.44;;;11.27;69.40
9764;BME280;4921;43.214;27.936;2024-03-02T06:49:54;100750.66;;;11.27;68.69
9764;BME280;4921;43.214;27.936;2024-03-02T06:52:19;100741.41;;;11.19;67.87
9764;BME280;4921;43.214;27.936;2024-03-02T06:54:46;100749.34;;;11.36;68.15
9764;BME280;4921;43.214;27.936;2024-03-02T06:57:12;100739.41;;;11.47;68.46
9764;BME280;4921;43.214;27.936;2024-03-02T06:59:37;100742.88;;;11.44;68.05
9764;BME280;4921;43.214;27.936;2024-03-02T07:02:03;100748.59;;;11.51;67.07
9764;BME280;4921;43.214;27.936;2024-03-02T07:04:29;100749.06;;;11.41;68.41
9764;BME280;4921;43.214;27.936;2024-03-02T07:06:54;100750.44;;;11.47;67.42
9764;BME280;4921;43.214;27.936;2024-03-02T07:09:20;100764.25;;;11.63;67.58
9764;BME280;4921;43.214;27.936;2024-03-02T07:11:48;100744.84;;;11.59;66.72
9764;BME280;4921;43.214;27.936;2024-03-02T07:14:14;100756.72;;;11.75;67.31
9764;BME280;4921;43.214;27.936;2024-03-02T07:16:40;100749.22;;;11.60;67.27
9764;BME280;4921;43.214;27.936;2024-03-02T07:19:06;100751.91;;;11.72;67.08
9764;BME280;4921;43.214;27.936;2024-03-02T07:21:32;100757.44;;;11.88;67.17
9764;BME280;4921;43.214;27.936;2024-03-02T07:23:58;100753.78;;;11.84;66.62
9764;BME280;4921;43.214;27.936;2024-03-02T07:26:24;100755.16;;;11.62;66.02
9764;BME280;4921;43.214;27.936;2024-03-02T07:28:50;100737.66;;;11.55;65.96
9764;BME280;4921;43.214;27.936;2024-03-02T07:31:17;100751.19;;;11.75;66.99
9764;BME280;4921;43.214;27.936;2024-03-02T07:33:45;100757.97;;;11.93;65.34
9764;BME280;4921;43.214;27.936;2024-03-02T07:36:12;100746.50;;;11.91;66.79
9764;BME280;4921;43.214;27.936;2024-03-02T07:38:38;100744.09;;;11.74;66.21
9764;BME280;4921;43.214;27.936;2024-03-02T07:41:05;100747.47;;;11.99;74.69
9764;BME280;4921;43.214;27.936;2024-03-02T07:43:31;100751.81;;;12.50;76.02
9764;BME280;4921;43.214;27.936;2024-03-02T07:45:58;100740.94;;;12.76;66.37
9764;BME280;4921;43.214;27.936;2024-03-02T07:48:24;100751.00;;;12.84;64.59
9764;BME280;4921;43.214;27.936;2024-03-02T07:50:50;100746.22;;;12.81;63.81
9764;BME280;4921;43.214;27.936;2024-03-02T07:53:16;100752.09;;;12.45;62.71
9764;BME280;4921;43.214;27.936;2024-03-02T07:55:42;100762.41;;;12.48;63.44
9764;BME280;4921;43.214;27.936;2024-03-02T07:58:07;100765.72;;;12.54;63.70
9764;BME280;4921;43.214;27.936;2024-03-02T08:00:33;100763.09;;;12.26;63.72
9764;BME280;4921;43.214;27.936;2024-03-02T08:02:59;100755.13;;;11.90;64.43
9764;BME280;4921;43.214;27.936;2024-03-02T08:05:25;100766.84;;;12.02;64.79
9764;BME280;4921;43.214;27.936;2024-03-02T08:07:51;100759.34;;;11.56;65.14
9764;BME280;4921;43.214;27.936;2024-03-02T08:10:18;100757.72;;;11.55;65.63
9764;BME280;4921;43.214;27.936;2024-03-02T08:12:43;100744.13;;;11.62;65.48
9764;BME280;4921;43.214;27.936;2024-03-02T08:15:09;100747.28;;;11.76;65.93
9764;BME280;4921;43.214;27.936;2024-03-02T08:17:34;100755.16;;;11.62;65.74
9764;BME280;4921;43.214;27.936;2024-03-02T08:20:00;100752.81;;;11.33;65.43
9764;BME280;4921;43.214;27.936;2024-03-02T08:22:25;100744.56;;;11.05;66.86
9764;BME280;4921;43.214;27.936;2024-03-02T08:24:51;100749.16;;;11.01;67.75
9764;BME280;4921;43.214;27.936;2024-03-02T08:27:17;100755.88;;;11.16;68.02
9764;BME280;4921;43.214;27.936;2024-03-02T08:29:44;100755.97;;;11.20;66.72
9764;BME280;4921;43.214;27.936;2024-03-02T08:32:09;100762.06;;;11.13;68.70
9764;BME280;4921;43.214;27.936;2024-03-02T08:34:35;100757.94;;;11.19;67.32
9764;BME280;4921;43.214;27.936;2024-03-02T08:37:03;100749.25;;;11.48;66.40
9764;BME280;4921;43.214;27.936;2024-03-02T08:39:29;100761.06;;;11.33;67.15
9764;BME280;4921;43.214;27.936;2024-03-02T08:41:54;100746.94;;;11.35;67.14
9764;BME280;4921;43.214;27.936;2024-03-02T08:44:20;100759.13;;;11.77;65.98
9764;BME280;4921;43.214;27.936;2024-03-02T08:46:46;100776.88;;;11.64;64.83
9764;BME280;4921;43.214;27.936;2024-03-02T08:49:12;100763.13;;;11.79;64.34
9764;BME280;4921;43.214;27.936;2024-03-02T08:51:37;100778.16;;;11.82;64.58
9764;BME280;4921;43.214;27.936;2024-03-02T08:54:03;100781.72;;;12.13;64.16
9764;BME280;4921;43.214;27.936;2024-03-02T08:56:30;100775.19;;;12.37;64.32
9764;BME280;4921;43.214;27.936;2024-03-02T08:58:56;100779.84;;;12.33;63.65
9764;BME280;4921;43.214;27.936;2024-03-02T09:01:21;100777.22;;;12.40;62.67
9764;BME280;4921;43.214;27.936;2024-03-02T09:03:47;100778.56;;;12.31;62.51
9764;BME280;4921;43.214;27.936;2024-03-02T09:08:49;100784.97;;;12.50;63.73
9764;BME280;4921;43.214;27.936;2024-03-02T09:11:17;100776.91;;;12.61;62.32
9764;BME280;4921;43.214;27.936;2024-03-02T09:13:43;100773.59;;;12.20;63.23
9764;BME280;4921;43.214;27.936;2024-03-02T09:16:09;100770.50;;;11.91;62.75
9764;BME280;4921;43.214;27.936;2024-03-02T09:18:36;100769.63;;;11.87;63.11
9764;BME280;4921;43.214;27.936;2024-03-02T09:21:02;100772.44;;;12.06;62.25
9764;BME280;4921;43.214;27.936;2024-03-02T09:23:29;100772.72;;;12.01;62.86
9764;BME280;4921;43.214;27.936;2024-03-02T09:25:55;100770.69;;;11.98;62.98
9764;BME280;4921;43.214;27.936;2024-03-02T09:28:20;100771.56;;;12.17;62.76
9764;BME280;4921;43.214;27.936;2024-03-02T09:30:46;100760.34;;;12.26;61.91
9764;BME280;4921;43.214;27.936;2024-03-02T09:33:11;100769.81;;;12.60;62.26
9764;BME280;4921;43.214;27.936;2024-03-02T09:35:37;100770.03;;;12.70;61.51
9764;BME280;4921;43.214;27.936;2024-03-02T09:38:03;100768.66;;;12.80;61.00
9764;BME280;4921;43.214;27.936;2024-03-02T09:40:29;100749.59;;;12.75;60.60
9764;BME280;4921;43.214;27.936;2024-03-02T09:45:29;100754.13;;;12.48;61.67
9764;BME280;4921;43.214;27.936;2024-03-02T09:47:55;100747.22;;;12.73;60.50
9764;BME280;4921;43.214;27.936;2024-03-02T09:50:21;100761.38;;;12.72;59.62
9764;BME280;4921;43.214;27.936;2024-03-02T09:52:49;100764.56;;;12.55;60.59
9764;BME280;4921;43.214;27.936;2024-03-02T09:55:15;100759.16;;;12.43;60.32
9764;BME280;4921;43.214;27.936;2024-03-02T09:57:42;100736.41;;;12.14;61.05
9764;BME280;4921;43.214;27.936;2024-03-02T10:00:08;100728.38;;;12.09;61.50
9764;BME280;4921;43.214;27.936;2024-03-02T10:02:34;100754.81;;;12.61;60.92
9764;BME280;4921;43.214;27.936;2024-03-02T10:04:59;100753.28;;;12.44;61.66
9764;BME280;4921;43.214;27.936;2024-03-02T10:07:25;100751.63;;;12.24;60.39
9764;BME280;4921;43.214;27.936;2024-03-02T10:09:50;100759.44;;;12.22;59.85
9764;BME280;4921;43.214;27.936;2024-03-02T10:12:18;100748.19;;;11.80;62.00
9764;BME280;4921;43.214;27.936;2024-03-02T10:14:44;100755.00;;;12.17;60.92
9764;BME280;4921;43.214;27.936;2024-03-02T10:17:13;100749.19;;;12.38;61.88
9764;BME280;4921;43.214;27.936;2024-03-02T10:19:39;100732.31;;;12.08;61.87
9764;BME280;4921;43.214;27.936;2024-03-02T10:22:07;100748.31;;;12.69;60.79
9764;BME280;4921;43.214;27.936;2024-03-02T10:24:40;100733.84;;;12.75;61.43
9764;BME280;4921;43.214;27.936;2024-03-02T10:27:14;100722.72;;;12.72;61.89
9764;BME280;4921;43.214;27.936;2024-03-02T10:29:40;100725.25;;;12.80;61.51
9764;BME280;4921;43.214;27.936;2024-03-02T10:32:10;100739.00;;;12.77;61.69
9764;BME280;4921;43.214;27.936;2024-03-02T10:34:43;100726.50;;;12.64;62.33
9764;BME280;4921;43.214;27.936;2024-03-02T10:37:11;100729.50;;;12.40;63.03
9764;BME280;4921;43.214;27.936;2024-03-02T10:39:37;100708.22;;;12.59;63.35
9764;BME280;4921;43.214;27.936;2024-03-02T10:42:05;100722.91;;;12.44;63.78
9764;BME280;4921;43.214;27.936;2024-03-02T10:44:32;100722.31;;;12.54;63.06
9764;BME280;4921;43.214;27.936;2024-03-02T10:47:05;100712.78;;;12.52;62.43
9764;BME280;4921;43.214;27.936;2024-03-02T10:49:32;100704.47;;;12.67;61.99
9764;BME280;4921;43.214;27.936;2024-03-02T10:52:00;100712.31;;;12.31;62.95
9764;BME280;4921;43.214;27.936;2024-03-02T10:54:26;100694.75;;;12.39;63.08
9764;BME280;4921;43.214;27.936;2024-03-02T10:56:58;100703.28;;;12.49;62.09
9764;BME280;4921;43.214;27.936;2024-03-02T10:59:37;100685.16;;;12.52;62.38
9764;BME280;4921;43.214;27.936;2024-03-02T11:02:11;100696.88;;;12.64;61.61
9764;BME280;4921;43.214;27.936;2024-03-02T11:04:37;100702.34;;;12.80;61.21
9764;BME280;4921;43.214;27.936;2024-03-02T11:07:08;100696.97;;;12.68;61.54
9764;BME280;4921;43.214;27.936;2024-03-02T11:09:38;100698.00;;;12.60;61.26
9764;BME280;4921;43.214;27.936;2024-03-02T11:12:53;100702.47;;;12.87;60.47
9764;BME280;4921;43.214;27.936;2024-03-02T11:15:21;100693.84;;;12.69;61.37
9764;BME280;4921;43.214;27.936;2024-03-02T11:17:50;100697.91;;;12.56;61.75
9764;BME280;4921;43.214;27.936;2024-03-02T11:20:17;100686.41;;;12.35;62.06
9764;BME280;4921;43.214;27.936;2024-03-02T11:22:44;100696.28;;;12.01;62.98
9764;BME280;4921;43.214;27.936;2024-03-02T11:25:26;100708.59;;;11.88;63.35
9764;BME280;4921;43.214;27.936;2024-03-02T11:33:05;100700.50;;;12.30;63.57
9764;BME280;4921;43.214;27.936;2024-03-02T11:35:44;100656.78;;;12.16;61.76
9764;BME280;4921;43.214;27.936;2024-03-02T11:38:13;100693.72;;;12.27;63.04
9764;BME280;4921;43.214;27.936;2024-03-02T11:40:40;100682.69;;;12.47;61.75
9764;BME280;4921;43.214;27.936;2024-03-02T11:43:06;100685.63;;;12.54;62.46
9764;BME280;4921;43.214;27.936;2024-03-02T11:45:33;100689.06;;;12.12;62.32
9764;BME280;4921;43.214;27.936;2024-03-02T11:47:59;100697.59;;;12.07;63.59
9764;BME280;4921;43.214;27.936;2024-03-02T11:50:47;100697.28;;;11.93;62.41
9764;BME280;4921;43.214;27.936;2024-03-02T11:53:14;100679.19;;;11.96;63.36
9764;BME280;4921;43.214;27.936;2024-03-02T11:55:40;100685.53;;;11.81;63.44
9764;BME280;4921;43.214;27.936;2024-03-02T11:58:06;100682.47;;;12.01;63.60
9764;BME280;4921;43.214;27.936;2024-03-02T12:00:34;100683.28;;;12.02;62.87
9764;BME280;4921;43.214;27.936;2024-03-02T12:03:12;100669.44;;;12.17;63.66
9764;BME280;4921;43.214;27.936;2024-03-02T12:05:39;100660.41;;;12.01;63.26
9764;BME280;4921;43.214;27.936;2024-03-02T12:08:08;100684.16;;;12.06;63.81
9764;BME280;4921;43.214;27.936;2024-03-02T12:10:34;100673.13;;;12.41;62.41
9764;BME280;4921;43.214;27.936;2024-03-02T12:13:02;100676.16;;;12.01;62.74
9764;BME280;4921;43.214;27.936;2024-03-02T12:15:30;100667.13;;;12.19;63.69
9764;BME280;4921;43.214;27.936;2024-03-02T12:17:57;100663.66;;;12.42;62.98
9764;BME280;4921;43.214;27.936;2024-03-02T12:20:24;100667.81;;;12.32;62.81
9764;BME280;4921;43.214;27.936;2024-03-02T12:22:53;100667.28;;;11.92;64.05
9764;BME280;4921;43.214;27.936;2024-03-02T12:25:20;100658.66;;;11.93;64.54
9764;BME280;4921;43.214;27.936;2024-03-02T12:27:50;100665.22;;;11.89;64.52
9764;BME280;4921;43.214;27.936;2024-03-02T12:30:20;100666.44;;;12.07;64.67
9764;BME280;4921;43.214;27.936;2024-03-02T12:32:46;100677.22;;;11.96;64.29
9764;BME280;4921;43.214;27.936;2024-03-02T12:35:12;100664.81;;;12.21;63.23
9764;BME280;4921;43.214;27.936;2024-03-02T12:37:48;100658.56;;;12.24;63.53
9764;BME280;4921;43.214;27.936;2024-03-02T12:40:16;100673.25;;;12.13;63.12
9764;BME280;4921;43.214;27.936;2024-03-02T12:42:44;100677.19;;;12.12;63.25
9764;BME280;4921;43.214;27.936;2024-03-02T12:45:11;100679.81;;;11.58;65.20
9764;BME280;4921;43.214;27.936;2024-03-02T12:47:37;100663.56;;;11.53;64.31
9764;BME280;4921;43.214;27.936;2024-03-02T12:50:07;100665.94;;;11.55;64.55
9764;BME280;4921;43.214;27.936;2024-03-02T12:52:33;100663.78;;;11.48;65.24
9764;BME280;4921;43.214;27.936;2024-03-02T12:55:04;100678.88;;;11.66;65.10
9764;BME280;4921;43.214;27.936;2024-03-02T12:57:33;100684.00;;;11.37;66.00
9764;BME280;4921;43.214;27.936;2024-03-02T13:00:00;100671.66;;;11.46;65.83
9764;BME280;4921;43.214;27.936;2024-03-02T13:02:30;100680.97;;;11.42;65.30
9764;BME280;4921;43.214;27.936;2024-03-02T13:04:57;100684.81;;;11.53;65.30
9764;BME280;4921;43.214;27.936;2024-03-02T13:07:25;100678.41;;;11.64;65.51
9764;BME280;4921;43.214;27.936;2024-03-02T13:09:51;100684.97;;;11.44;65.48
9764;BME280;4921;43.214;27.936;2024-03-02T13:12:17;100677.38;;;11.69;66.04
9764;BME280;4921;43.214;27.936;2024-03-02T13:14:44;100684.56;;;11.73;65.63
9764;BME280;4921;43.214;27.936;2024-03-02T13:17:09;100678.03;;;11.50;67.13
9764;BME280;4921;43.214;27.936;2024-03-02T13:19:35;100681.41;;;11.59;66.52